sensor_id;sensor_type;location;lat;lon;timestamp;P1;durP1;ratioP1;P2;durP2;ratioP2
3547;SDS011;1788;49.400;11.092;2023-02-14T00:00:37;43.93;;;20.30;;
3547;SDS011;1788;49.400;11.092;2023-02-14T00:03:04;45.23;;;20.33;;
3547;SDS011;1788;49.400;11.092;2023-02-14T00:05:30;40.97;;;20.83;;
3547;SDS011;1788;49.400;11.092;2023-02-14T00:07:57;46.20;;;21.07;;
3547;SDS011;1788;49.400;11.092;2023-02-14T00:10:24;43.30;;;18.97;;
3547;SDS011;1788;49.400;11.092;2023-02-14T00:12:50;44.43;;;19.73;;
3547;SDS011;1788;49.400;11.092;2023-02-14T00:15:17;48.93;;;19.30;;
3547;SDS011;1788;49.400;11.092;2023-02-14T00:17:44;40.90;;;19.27;;
3547;SDS011;1788;49.400;11.092;2023-02-14T00:20:11;41.67;;;18.83;;
3547;SDS011;1788;49.400;11.092;2023-02-14T00:22:39;53.03;;;20.23;;
3547;SDS011;1788;49.400;11.092;2023-02-14T00:25:06;47.07;;;19.47;;
3547;SDS011;1788;49.400;11.092;2023-02-14T00:27:33;47.77;;;18.77;;
3547;SDS011;1788;49.400;11.092;2023-02-14T00:30:00;46.93;;;20.23;;
3547;SDS011;1788;49.400;11.092;2023-02-14T00:32:28;37.73;;;18.43;;
3547;SDS011;1788;49.400;11.092;2023-02-14T00:34:54;38.90;;;19.73;;
3547;SDS011;1788;49.400;11.092;2023-02-14T00:37:21;43.53;;;19.50;;
3547;SDS011;1788;49.400;11.092;2023-02-14T00:39:47;40.73;;;19.40;;
3547;SDS011;1788;49.400;11.092;2023-02-14T00:42:14;46.07;;;19.33;;
3547;SDS011;1788;49.400;11.092;2023-02-14T00:44:41;43.07;;;19.67;;
3547;SDS011;1788;49.400;11.092;2023-02-14T00:47:08;42.87;;;20.30;;
3547;SDS011;1788;49.400;11.092;2023-02-14T00:49:35;53.40;;;21.50;;
3547;SDS011;1788;49.400;11.092;2023-02-14T00:52:02;40.27;;;17.27;;
3547;SDS011;1788;49.400;11.092;2023-02-14T00:54:29;48.77;;;21.10;;
3547;SDS011;1788;49.400;11.092;2023-02-14T00:56:56;45.37;;;19.77;;
3547;SDS011;1788;49.400;11.092;2023-02-14T00:59:22;44.73;;;19.70;;
3547;SDS011;1788;49.400;11.092;2023-02-14T01:01:49;46.43;;;19.73;;
3547;SDS011;1788;49.400;11.092;2023-02-14T01:04:16;49.37;;;19.70;;
3547;SDS011;1788;49.400;11.092;2023-02-14T01:06:43;50.40;;;20.40;;
3547;SDS011;1788;49.400;11.092;2023-02-14T01:09:10;47.27;;;20.70;;
3547;SDS011;1788;49.400;11.092;2023-02-14T01:11:37;52.17;;;21.50;;
3547;SDS011;1788;49.400;11.092;2023-02-14T01:14:04;46.07;;;20.37;;
3547;SDS011;1788;49.400;11.092;2023-02-14T01:16:32;42.70;;;20.00;;
3547;SDS011;1788;49.400;11.092;2023-02-14T01:18:59;46.33;;;19.33;;
3547;SDS011;1788;49.400;11.092;2023-02-14T01:21:26;46.40;;;19.57;;
3547;SDS011;1788;49.400;11.092;2023-02-14T01:23:53;45.97;;;21.53;;
3547;SDS011;1788;49.400;11.092;2023-02-14T01:26:19;46.43;;;21.00;;
3547;SDS011;1788;49.400;11.092;2023-02-14T01:28:46;49.07;;;20.43;;
3547;SDS011;1788;49.400;11.092;2023-02-14T01:31:13;51.87;;;20.60;;
3547;SDS011;1788;49.400;11.092;2023-02-14T01:33:39;45.97;;;19.97;;
3547;SDS011;1788;49.400;11.092;2023-02-14T01:36:06;47.70;;;20.83;;
3547;SDS011;1788;49.400;11.092;2023-02-14T01:38:33;45.60;;;20.07;;
3547;SDS011;1788;49.400;11.092;2023-02-14T01:40:59;50.03;;;19.67;;
3547;SDS011;1788;49.400;11.092;2023-02-14T01:43:27;48.03;;;20.67;;
3547;SDS011;1788;49.400;11.092;2023-02-14T01:45:53;41.50;;;18.43;;
3547;SDS011;1788;49.400;11.092;2023-02-14T01:48:21;48.93;;;20.67;;
3547;SDS011;1788;49.400;11.092;2023-02-14T01:50:47;40.27;;;17.30;;
3547;SDS011;1788;49.400;11.092;2023-02-14T01:53:15;38.10;;;16.90;;
3547;SDS011;1788;49.400;11.092;2023-02-14T01:55:43;45.43;;;19.07;;
3547;SDS011;1788;49.400;11.092;2023-02-14T01:58:08;45.07;;;19.90;;
3547;SDS011;1788;49.400;11.092;2023-02-14T02:00:34;51.37;;;21.40;;
3547;SDS011;1788;49.400;11.092;2023-02-14T02:03:00;40.33;;;18.13;;
3547;SDS011;1788;49.400;11.092;2023-02-14T02:05:27;46.70;;;19.03;;
3547;SDS011;1788;49.400;11.092;2023-02-14T02:07:54;43.77;;;17.93;;
3547;SDS011;1788;49.400;11.092;2023-02-14T02:10:21;41.07;;;18.30;;
3547;SDS011;1788;49.400;11.092;2023-02-14T02:12:49;45.83;;;18.50;;
3547;SDS011;1788;49.400;11.092;2023-02-14T02:15:15;41.30;;;16.63;;
3547;SDS011;1788;49.400;11.092;2023-02-14T02:17:45;40.87;;;18.47;;
3547;SDS011;1788;49.400;11.092;2023-02-14T02:32:26;44.90;;;19.93;;
3547;SDS011;1788;49.400;11.092;2023-02-14T02:37:18;42.63;;;20.17;;
3547;SDS011;1788;49.400;11.092;2023-02-14T02:39:45;48.80;;;21.47;;
3547;SDS011;1788;49.400;11.092;2023-02-14T02:42:13;47.07;;;20.13;;
3547;SDS011;1788;49.400;11.092;2023-02-14T02:47:05;49.00;;;19.00;;
3547;SDS011;1788;49.400;11.092;2023-02-14T02:51:57;54.13;;;19.40;;
3547;SDS011;1788;49.400;11.092;2023-02-14T02:56:52;49.80;;;20.90;;
3547;SDS011;1788;49.400;11.092;2023-02-14T02:59:18;58.33;;;21.73;;
3547;SDS011;1788;49.400;11.092;2023-02-14T03:04:10;53.83;;;19.40;;
3547;SDS011;1788;49.400;11.092;2023-02-14T03:06:37;51.10;;;20.73;;
3547;SDS011;1788;49.400;11.092;2023-02-14T03:11:31;50.93;;;22.53;;
3547;SDS011;1788;49.400;11.092;2023-02-14T03:28:41;43.27;;;19.20;;
3547;SDS011;1788;49.400;11.092;2023-02-14T03:48:13;47.87;;;20.80;;
3547;SDS011;1788;49.400;11.092;2023-02-14T03:50:40;45.13;;;18.83;;
3547;SDS011;1788;49.400;11.092;2023-02-14T03:53:06;46.40;;;19.47;;
3547;SDS011;1788;49.400;11.092;2023-02-14T03:55:33;41.47;;;18.70;;
3547;SDS011;1788;49.400;11.092;2023-02-14T04:00:26;42.70;;;18.60;;
3547;SDS011;1788;49.400;11.092;2023-02-14T04:02:53;50.30;;;19.13;;
3547;SDS011;1788;49.400;11.092;2023-02-14T04:05:21;48.60;;;18.90;;
3547;SDS011;1788;49.400;11.092;2023-02-14T04:07:47;42.47;;;17.67;;
3547;SDS011;1788;49.400;11.092;2023-02-14T04:10:14;52.90;;;18.80;;
3547;SDS011;1788;49.400;11.092;2023-02-14T04:12:41;47.23;;;19.57;;
3547;SDS011;1788;49.400;11.092;2023-02-14T04:15:07;47.77;;;18.00;;
3547;SDS011;1788;49.400;11.092;2023-02-14T04:17:34;45.43;;;19.53;;
3547;SDS011;1788;49.400;11.092;2023-02-14T04:20:01;51.70;;;20.73;;
3547;SDS011;1788;49.400;11.092;2023-02-14T04:22:27;43.57;;;18.07;;
3547;SDS011;1788;49.400;11.092;2023-02-14T04:24:54;52.40;;;20.50;;
3547;SDS011;1788;49.400;11.092;2023-02-14T04:27:20;51.10;;;21.87;;
3547;SDS011;1788;49.400;11.092;2023-02-14T04:29:47;46.37;;;17.87;;
3547;SDS011;1788;49.400;11.092;2023-02-14T04:32:15;54.57;;;19.27;;
3547;SDS011;1788;49.400;11.092;2023-02-14T04:34:40;44.00;;;18.27;;
3547;SDS011;1788;49.400;11.092;2023-02-14T04:37:08;51.63;;;19.00;;
3547;SDS011;1788;49.400;11.092;2023-02-14T04:39:34;42.37;;;18.10;;
3547;SDS011;1788;49.400;11.092;2023-02-14T04:42:02;46.63;;;18.77;;
3547;SDS011;1788;49.400;11.092;2023-02-14T04:44:28;41.67;;;18.13;;
3547;SDS011;1788;49.400;11.092;2023-02-14T04:46:55;50.13;;;17.90;;
3547;SDS011;1788;49.400;11.092;2023-02-14T04:49:21;49.17;;;19.60;;
3547;SDS011;1788;49.400;11.092;2023-02-14T04:51:48;48.07;;;18.80;;
3547;SDS011;1788;49.400;11.092;2023-02-14T04:54:15;49.80;;;18.00;;
3547;SDS011;1788;49.400;11.092;2023-02-14T04:56:42;41.37;;;17.40;;
3547;SDS011;1788;49.400;11.092;2023-02-14T04:59:09;51.83;;;18.27;;
3547;SDS011;1788;49.400;11.092;2023-02-14T05:01:36;44.37;;;18.50;;
3547;SDS011;1788;49.400;11.092;2023-02-14T05:04:04;49.33;;;19.47;;
3547;SDS011;1788;49.400;11.092;2023-02-14T05:06:30;46.47;;;18.47;;
3547;SDS011;1788;49.400;11.092;2023-02-14T05:08:58;53.07;;;19.40;;
3547;SDS011;1788;49.400;11.092;2023-02-14T05:11:25;45.43;;;18.20;;
3547;SDS011;1788;49.400;11.092;2023-02-14T05:13:51;45.27;;;18.13;;
3547;SDS011;1788;49.400;11.092;2023-02-14T05:16:18;43.17;;;17.60;;
3547;SDS011;1788;49.400;11.092;2023-02-14T05:18:45;45.87;;;18.77;;
3547;SDS011;1788;49.400;11.092;2023-02-14T05:21:12;48.40;;;17.87;;
3547;SDS011;1788;49.400;11.092;2023-02-14T05:23:39;40.13;;;17.10;;
3547;SDS011;1788;49.400;11.092;2023-02-14T05:26:06;41.17;;;15.97;;
3547;SDS011;1788;49.400;11.092;2023-02-14T05:28:33;42.37;;;16.37;;
3547;SDS011;1788;49.400;11.092;2023-02-14T05:31:00;45.13;;;16.93;;
3547;SDS011;1788;49.400;11.092;2023-02-14T05:33:27;43.00;;;16.77;;
3547;SDS011;1788;49.400;11.092;2023-02-14T05:35:54;45.07;;;18.87;;
3547;SDS011;1788;49.400;11.092;2023-02-14T05:38:21;52.17;;;20.03;;
3547;SDS011;1788;49.400;11.092;2023-02-14T05:40:47;46.50;;;17.70;;
3547;SDS011;1788;49.400;11.092;2023-02-14T05:43:14;49.07;;;20.17;;
3547;SDS011;1788;49.400;11.092;2023-02-14T05:45:41;48.47;;;18.07;;
3547;SDS011;1788;49.400;11.092;2023-02-14T05:48:08;49.07;;;19.37;;
3547;SDS011;1788;49.400;11.092;2023-02-14T05:50:35;39.80;;;17.20;;
3547;SDS011;1788;49.400;11.092;2023-02-14T05:53:02;46.70;;;17.40;;
3547;SDS011;1788;49.400;11.092;2023-02-14T05:55:29;43.70;;;17.03;;
3547;SDS011;1788;49.400;11.092;2023-02-14T05:57:56;42.43;;;15.50;;
3547;SDS011;1788;49.400;11.092;2023-02-14T06:00:23;37.97;;;15.67;;
3547;SDS011;1788;49.400;11.092;2023-02-14T06:02:49;38.97;;;15.37;;
3547;SDS011;1788;49.400;11.092;2023-02-14T06:05:16;38.90;;;17.63;;
3547;SDS011;1788;49.400;11.092;2023-02-14T06:07:43;52.00;;;17.97;;
3547;SDS011;1788;49.400;11.092;2023-02-14T06:10:10;40.13;;;16.17;;
3547;SDS011;1788;49.400;11.092;2023-02-14T06:12:36;47.57;;;17.33;;
3547;SDS011;1788;49.400;11.092;2023-02-14T06:15:04;45.93;;;17.80;;
3547;SDS011;1788;49.400;11.092;2023-02-14T06:17:30;41.93;;;16.70;;
3547;SDS011;1788;49.400;11.092;2023-02-14T06:19:58;46.13;;;18.53;;
3547;SDS011;1788;49.400;11.092;2023-02-14T06:22:24;45.80;;;19.47;;
3547;SDS011;1788;49.400;11.092;2023-02-14T06:24:51;47.83;;;17.50;;
3547;SDS011;1788;49.400;11.092;2023-02-14T06:27:18;48.57;;;19.73;;
3547;SDS011;1788;49.400;11.092;2023-02-14T06:29:44;42.33;;;18.17;;
3547;SDS011;1788;49.400;11.092;2023-02-14T06:32:12;39.27;;;16.13;;
3547;SDS011;1788;49.400;11.092;2023-02-14T06:34:38;44.83;;;16.47;;
3547;SDS011;1788;49.400;11.092;2023-02-14T06:37:06;46.40;;;17.80;;
3547;SDS011;1788;49.400;11.092;2023-02-14T06:39:32;43.47;;;18.13;;
3547;SDS011;1788;49.400;11.092;2023-02-14T06:42:00;45.03;;;17.10;;
3547;SDS011;1788;49.400;11.092;2023-02-14T06:44:26;49.30;;;17.70;;
3547;SDS011;1788;49.400;11.092;2023-02-14T06:46:54;43.10;;;16.67;;
3547;SDS011;1788;49.400;11.092;2023-02-14T06:49:20;43.30;;;15.80;;
3547;SDS011;1788;49.400;11.092;2023-02-14T06:51:47;47.83;;;17.57;;
3547;SDS011;1788;49.400;11.092;2023-02-14T06:54:13;38.87;;;16.30;;
3547;SDS011;1788;49.400;11.092;2023-02-14T06:56:40;46.87;;;17.87;;
3547;SDS011;1788;49.400;11.092;2023-02-14T06:59:07;45.03;;;17.50;;
3547;SDS011;1788;49.400;11.092;2023-02-14T07:01:34;42.47;;;17.70;;
3547;SDS011;1788;49.400;11.092;2023-02-14T07:04:01;34.40;;;15.60;;
3547;SDS011;1788;49.400;11.092;2023-02-14T07:06:28;42.23;;;16.93;;
3547;SDS011;1788;49.400;11.092;2023-02-14T07:08:55;47.50;;;18.13;;
3547;SDS011;1788;49.400;11.092;2023-02-14T07:11:22;43.63;;;17.50;;
3547;SDS011;1788;49.400;11.092;2023-02-14T07:13:49;33.57;;;15.27;;
3547;SDS011;1788;49.400;11.092;2023-02-14T07:16:16;50.80;;;18.47;;
3547;SDS011;1788;49.400;11.092;2023-02-14T07:18:42;48.50;;;19.97;;
3547;SDS011;1788;49.400;11.092;2023-02-14T07:21:09;51.77;;;19.57;;
3547;SDS011;1788;49.400;11.092;2023-02-14T07:23:36;48.07;;;17.70;;
3547;SDS011;1788;49.400;11.092;2023-02-14T07:26:03;47.57;;;18.63;;
3547;SDS011;1788;49.400;11.092;2023-02-14T07:28:30;52.00;;;19.23;;
3547;SDS011;1788;49.400;11.092;2023-02-14T07:33:23;54.47;;;19.97;;
3547;SDS011;1788;49.400;11.092;2023-02-14T07:35:50;51.80;;;20.20;;
3547;SDS011;1788;49.400;11.092;2023-02-14T07:38:17;49.77;;;18.30;;
3547;SDS011;1788;49.400;11.092;2023-02-14T07:40:43;59.23;;;20.27;;
3547;SDS011;1788;49.400;11.092;2023-02-14T07:43:10;56.30;;;20.87;;
3547;SDS011;1788;49.400;11.092;2023-02-14T07:45:37;57.23;;;21.47;;
3547;SDS011;1788;49.400;11.092;2023-02-14T07:48:04;55.80;;;20.77;;
3547;SDS011;1788;49.400;11.092;2023-02-14T07:50:31;47.90;;;19.63;;
3547;SDS011;1788;49.400;11.092;2023-02-14T07:52:59;55.47;;;19.50;;
3547;SDS011;1788;49.400;11.092;2023-02-14T07:55:26;41.43;;;16.50;;
3547;SDS011;1788;49.400;11.092;2023-02-14T07:57:53;45.20;;;18.73;;
3547;SDS011;1788;49.400;11.092;2023-02-14T08:00:20;51.23;;;19.67;;
3547;SDS011;1788;49.400;11.092;2023-02-14T08:02:46;50.63;;;18.60;;
3547;SDS011;1788;49.400;11.092;2023-02-14T08:05:13;49.37;;;19.70;;
3547;SDS011;1788;49.400;11.092;2023-02-14T08:07:40;51.10;;;18.93;;
3547;SDS011;1788;49.400;11.092;2023-02-14T08:10:06;48.27;;;16.77;;
3547;SDS011;1788;49.400;11.092;2023-02-14T08:12:34;55.07;;;18.93;;
3547;SDS011;1788;49.400;11.092;2023-02-14T08:15:02;54.13;;;19.60;;
3547;SDS011;1788;49.400;11.092;2023-02-14T08:17:29;58.37;;;19.23;;
3547;SDS011;1788;49.400;11.092;2023-02-14T08:19:56;52.73;;;17.90;;
3547;SDS011;1788;49.400;11.092;2023-02-14T08:22:23;45.70;;;18.87;;
3547;SDS011;1788;49.400;11.092;2023-02-14T08:24:50;45.03;;;16.07;;
3547;SDS011;1788;49.400;11.092;2023-02-14T08:27:17;43.80;;;18.70;;
3547;SDS011;1788;49.400;11.092;2023-02-14T08:29:44;45.80;;;17.87;;
3547;SDS011;1788;49.400;11.092;2023-02-14T08:32:12;43.93;;;18.03;;
3547;SDS011;1788;49.400;11.092;2023-02-14T08:34:39;49.63;;;19.07;;
3547;SDS011;1788;49.400;11.092;2023-02-14T08:37:05;37.83;;;16.73;;
3547;SDS011;1788;49.400;11.092;2023-02-14T08:39:32;46.27;;;16.90;;
3547;SDS011;1788;49.400;11.092;2023-02-14T08:42:00;46.77;;;18.07;;
3547;SDS011;1788;49.400;11.092;2023-02-14T08:44:27;45.10;;;17.27;;
3547;SDS011;1788;49.400;11.092;2023-02-14T08:46:53;43.97;;;17.63;;
3547;SDS011;1788;49.400;11.092;2023-02-14T08:49:20;54.90;;;18.00;;
3547;SDS011;1788;49.400;11.092;2023-02-14T08:51:47;38.43;;;16.50;;
3547;SDS011;1788;49.400;11.092;2023-02-14T08:54:14;47.70;;;18.13;;
3547;SDS011;1788;49.400;11.092;2023-02-14T08:56:41;43.57;;;18.00;;
3547;SDS011;1788;49.400;11.092;2023-02-14T08:59:08;48.50;;;18.70;;
3547;SDS011;1788;49.400;11.092;2023-02-14T09:01:35;45.87;;;19.23;;
3547;SDS011;1788;49.400;11.092;2023-02-14T09:04:02;47.60;;;17.30;;
3547;SDS011;1788;49.400;11.092;2023-02-14T09:06:29;42.77;;;17.27;;
3547;SDS011;1788;49.400;11.092;2023-02-14T09:08:56;33.97;;;15.93;;
3547;SDS011;1788;49.400;11.092;2023-02-14T09:11:24;38.60;;;17.47;;
3547;SDS011;1788;49.400;11.092;2023-02-14T09:13:51;42.13;;;16.77;;
3547;SDS011;1788;49.400;11.092;2023-02-14T09:16:18;40.13;;;15.83;;
3547;SDS011;1788;49.400;11.092;2023-02-14T09:18:44;41.23;;;16.97;;
3547;SDS011;1788;49.400;11.092;2023-02-14T09:21:13;35.70;;;15.67;;
3547;SDS011;1788;49.400;11.092;2023-02-14T09:23:38;39.57;;;16.20;;
3547;SDS011;1788;49.400;11.092;2023-02-14T09:26:08;42.37;;;16.37;;
3547;SDS011;1788;49.400;11.092;2023-02-14T09:28:32;44.00;;;18.10;;
3547;SDS011;1788;49.400;11.092;2023-02-14T09:31:06;38.50;;;17.70;;
3547;SDS011;1788;49.400;11.092;2023-02-14T09:33:26;36.60;;;15.63;;
3547;SDS011;1788;49.400;11.092;2023-02-14T09:35:53;45.43;;;18.73;;
3547;SDS011;1788;49.400;11.092;2023-02-14T09:38:20;38.83;;;15.40;;
3547;SDS011;1788;49.400;11.092;2023-02-14T09:40:47;37.70;;;15.50;;
3547;SDS011;1788;49.400;11.092;2023-02-14T09:45:41;36.10;;;14.77;;
3547;SDS011;1788;49.400;11.092;2023-02-14T09:55:30;39.30;;;17.17;;
3547;SDS011;1788;49.400;11.092;2023-02-14T10:00:26;33.07;;;15.40;;
3547;SDS011;1788;49.400;11.092;2023-02-14T10:02:57;33.70;;;15.67;;
3547;SDS011;1788;49.400;11.092;2023-02-14T10:17:34;34.73;;;15.10;;
3547;SDS011;1788;49.400;11.092;2023-02-14T10:19:57;31.03;;;13.73;;
3547;SDS011;1788;49.400;11.092;2023-02-14T10:22:26;29.30;;;14.23;;
3547;SDS011;1788;49.400;11.092;2023-02-14T10:24:52;32.73;;;14.07;;
3547;SDS011;1788;49.400;11.092;2023-02-14T10:29:44;27.57;;;11.17;;
3547;SDS011;1788;49.400;11.092;2023-02-14T10:32:12;27.13;;;10.80;;
3547;SDS011;1788;49.400;11.092;2023-02-14T10:34:41;34.17;;;13.70;;
3547;SDS011;1788;49.400;11.092;2023-02-14T10:37:10;30.67;;;14.63;;
3547;SDS011;1788;49.400;11.092;2023-02-14T10:42:03;33.50;;;14.17;;
3547;SDS011;1788;49.400;11.092;2023-02-14T10:46:55;31.63;;;13.60;;
3547;SDS011;1788;49.400;11.092;2023-02-14T10:56:40;24.90;;;12.53;;
3547;SDS011;1788;49.400;11.092;2023-02-14T11:01:32;38.50;;;15.63;;
3547;SDS011;1788;49.400;11.092;2023-02-14T11:03:59;33.97;;;15.00;;
3547;SDS011;1788;49.400;11.092;2023-02-14T11:06:26;34.80;;;14.10;;
3547;SDS011;1788;49.400;11.092;2023-02-14T11:08:53;32.67;;;13.50;;
3547;SDS011;1788;49.400;11.092;2023-02-14T11:13:47;26.30;;;12.33;;
3547;SDS011;1788;49.400;11.092;2023-02-14T11:18:40;27.73;;;11.00;;
3547;SDS011;1788;49.400;11.092;2023-02-14T11:23:35;27.50;;;12.23;;
3547;SDS011;1788;49.400;11.092;2023-02-14T11:26:00;23.63;;;11.37;;
3547;SDS011;1788;49.400;11.092;2023-02-14T11:28:28;24.50;;;12.00;;
3547;SDS011;1788;49.400;11.092;2023-02-14T11:30:54;22.30;;;11.10;;
3547;SDS011;1788;49.400;11.092;2023-02-14T11:40:42;24.77;;;11.37;;
3547;SDS011;1788;49.400;11.092;2023-02-14T11:45:37;30.93;;;12.93;;
3547;SDS011;1788;49.400;11.092;2023-02-14T11:48:06;31.07;;;13.40;;
3547;SDS011;1788;49.400;11.092;2023-02-14T11:50:30;28.30;;;11.60;;
3547;SDS011;1788;49.400;11.092;2023-02-14T11:52:58;32.10;;;13.67;;
3547;SDS011;1788;49.400;11.092;2023-02-14T11:57:51;26.00;;;11.80;;
3547;SDS011;1788;49.400;11.092;2023-02-14T12:00:18;30.17;;;15.10;;
3547;SDS011;1788;49.400;11.092;2023-02-14T12:07:42;31.03;;;12.87;;
3547;SDS011;1788;49.400;11.092;2023-02-14T12:10:08;23.80;;;12.57;;
3547;SDS011;1788;49.400;11.092;2023-02-14T12:12:32;29.23;;;13.23;;
3547;SDS011;1788;49.400;11.092;2023-02-14T12:22:19;25.43;;;11.37;;
3547;SDS011;1788;49.400;11.092;2023-02-14T12:34:32;25.43;;;12.73;;
3547;SDS011;1788;49.400;11.092;2023-02-14T12:46:49;25.20;;;12.33;;
3547;SDS011;1788;49.400;11.092;2023-02-14T12:59:12;26.60;;;13.13;;
3547;SDS011;1788;49.400;11.092;2023-02-14T13:08:52;20.27;;;10.30;;
3547;SDS011;1788;49.400;11.092;2023-02-14T13:16:14;20.63;;;10.63;;
3547;SDS011;1788;49.400;11.092;2023-02-14T13:18:39;23.33;;;10.37;;
3547;SDS011;1788;49.400;11.092;2023-02-14T13:21:04;26.70;;;11.17;;
3547;SDS011;1788;49.400;11.092;2023-02-14T13:28:24;24.60;;;10.73;;
3547;SDS011;1788;49.400;11.092;2023-02-14T13:30:51;21.47;;;10.03;;
3547;SDS011;1788;49.400;11.092;2023-02-14T13:35:45;26.67;;;11.13;;
3547;SDS011;1788;49.400;11.092;2023-02-14T13:38:13;20.90;;;10.60;;
3547;SDS011;1788;49.400;11.092;2023-02-14T13:40:39;23.23;;;10.87;;
3547;SDS011;1788;49.400;11.092;2023-02-14T13:43:06;26.67;;;11.80;;
3547;SDS011;1788;49.400;11.092;2023-02-14T13:50:27;22.43;;;11.20;;
3547;SDS011;1788;49.400;11.092;2023-02-14T13:52:55;22.37;;;12.37;;
3547;SDS011;1788;49.400;11.092;2023-02-14T13:55:22;24.60;;;11.70;;
3547;SDS011;1788;49.400;11.092;2023-02-14T14:07:34;24.03;;;10.87;;
3547;SDS011;1788;49.400;11.092;2023-02-14T14:10:02;25.80;;;11.60;;
3547;SDS011;1788;49.400;11.092;2023-02-14T14:12:35;27.60;;;11.63;;
3547;SDS011;1788;49.400;11.092;2023-02-14T14:17:21;27.90;;;12.47;;
3547;SDS011;1788;49.400;11.092;2023-02-14T14:19:48;19.47;;;9.97;;
3547;SDS011;1788;49.400;11.092;2023-02-14T14:22:15;23.60;;;11.13;;
3547;SDS011;1788;49.400;11.092;2023-02-14T14:34:28;23.90;;;11.47;;
3547;SDS011;1788;49.400;11.092;2023-02-14T14:41:48;41.97;;;17.70;;
3547;SDS011;1788;49.400;11.092;2023-02-14T14:44:14;31.37;;;15.03;;
3547;SDS011;1788;49.400;11.092;2023-02-14T14:46:41;30.70;;;12.27;;
3547;SDS011;1788;49.400;11.092;2023-02-14T14:49:08;22.70;;;11.13;;
3547;SDS011;1788;49.400;11.092;2023-02-14T14:51:34;28.47;;;14.43;;
3547;SDS011;1788;49.400;11.092;2023-02-14T14:56:29;24.40;;;11.33;;
3547;SDS011;1788;49.400;11.092;2023-02-14T14:58:54;24.60;;;11.33;;
3547;SDS011;1788;49.400;11.092;2023-02-14T15:03:47;27.63;;;11.13;;
3547;SDS011;1788;49.400;11.092;2023-02-14T15:06:16;35.57;;;16.37;;
3547;SDS011;1788;49.400;11.092;2023-02-14T15:08:40;32.27;;;14.53;;
3547;SDS011;1788;49.400;11.092;2023-02-14T15:16:00;26.50;;;12.13;;
3547;SDS011;1788;49.400;11.092;2023-02-14T15:18:27;24.50;;;12.30;;
3547;SDS011;1788;49.400;11.092;2023-02-14T15:20:54;20.33;;;10.13;;
3547;SDS011;1788;49.400;11.092;2023-02-14T15:23:21;24.80;;;11.27;;
3547;SDS011;1788;49.400;11.092;2023-02-14T15:25:47;24.33;;;11.03;;
3547;SDS011;1788;49.400;11.092;2023-02-14T15:30:40;27.47;;;12.17;;
3547;SDS011;1788;49.400;11.092;2023-02-14T15:33:08;26.70;;;15.40;;
3547;SDS011;1788;49.400;11.092;2023-02-14T15:35:34;26.07;;;12.00;;
3547;SDS011;1788;49.400;11.092;2023-02-14T15:38:01;19.30;;;11.20;;
3547;SDS011;1788;49.400;11.092;2023-02-14T15:40:27;21.50;;;11.93;;
3547;SDS011;1788;49.400;11.092;2023-02-14T15:42:53;27.87;;;13.47;;
3547;SDS011;1788;49.400;11.092;2023-02-14T15:45:22;28.83;;;13.87;;
3547;SDS011;1788;49.400;11.092;2023-02-14T15:47:48;22.53;;;11.83;;
3547;SDS011;1788;49.400;11.092;2023-02-14T15:52:40;22.67;;;11.00;;
3547;SDS011;1788;49.400;11.092;2023-02-14T15:55:07;25.97;;;11.27;;
3547;SDS011;1788;49.400;11.092;2023-02-14T15:57:33;20.07;;;10.50;;
3547;SDS011;1788;49.400;11.092;2023-02-14T15:59:59;26.03;;;11.83;;
3547;SDS011;1788;49.400;11.092;2023-02-14T16:02:28;22.03;;;11.23;;
3547;SDS011;1788;49.400;11.092;2023-02-14T16:04:53;22.03;;;10.80;;
3547;SDS011;1788;49.400;11.092;2023-02-14T16:07:21;25.23;;;11.80;;
3547;SDS011;1788;49.400;11.092;2023-02-14T16:09:46;22.40;;;11.60;;
3547;SDS011;1788;49.400;11.092;2023-02-14T16:14:40;22.50;;;10.23;;
3547;SDS011;1788;49.400;11.092;2023-02-14T16:19:35;22.43;;;10.53;;
3547;SDS011;1788;49.400;11.092;2023-02-14T16:22:00;19.37;;;11.30;;
3547;SDS011;1788;49.400;11.092;2023-02-14T16:24:26;22.03;;;11.73;;
3547;SDS011;1788;49.400;11.092;2023-02-14T16:26:54;29.27;;;12.57;;
3547;SDS011;1788;49.400;11.092;2023-02-14T16:29:20;26.43;;;11.77;;
3547;SDS011;1788;49.400;11.092;2023-02-14T16:31:49;20.87;;;11.70;;
3547;SDS011;1788;49.400;11.092;2023-02-14T16:34:14;23.43;;;10.20;;
3547;SDS011;1788;49.400;11.092;2023-02-14T16:36:42;22.60;;;10.47;;
3547;SDS011;1788;49.400;11.092;2023-02-14T16:41:36;21.77;;;10.67;;
3547;SDS011;1788;49.400;11.092;2023-02-14T16:44:02;21.03;;;11.00;;
3547;SDS011;1788;49.400;11.092;2023-02-14T16:46:30;20.73;;;10.43;;
3547;SDS011;1788;49.400;11.092;2023-02-14T16:48:56;24.73;;;11.47;;
3547;SDS011;1788;49.400;11.092;2023-02-14T16:53:50;25.10;;;10.77;;
3547;SDS011;1788;49.400;11.092;2023-02-14T16:56:19;23.40;;;11.23;;
3547;SDS011;1788;49.400;11.092;2023-02-14T16:58:43;20.30;;;10.63;;
3547;SDS011;1788;49.400;11.092;2023-02-14T17:01:10;18.43;;;10.00;;
3547;SDS011;1788;49.400;11.092;2023-02-14T17:03:37;23.50;;;10.97;;
3547;SDS011;1788;49.400;11.092;2023-02-14T17:06:04;25.23;;;11.20;;
3547;SDS011;1788;49.400;11.092;2023-02-14T17:08:31;22.47;;;10.60;;
3547;SDS011;1788;49.400;11.092;2023-02-14T17:10:58;24.37;;;11.93;;
3547;SDS011;1788;49.400;11.092;2023-02-14T17:13:25;23.83;;;12.07;;
3547;SDS011;1788;49.400;11.092;2023-02-14T17:15:51;19.03;;;10.77;;
3547;SDS011;1788;49.400;11.092;2023-02-14T17:18:18;21.70;;;10.83;;
3547;SDS011;1788;49.400;11.092;2023-02-14T17:20:45;23.50;;;11.23;;
3547;SDS011;1788;49.400;11.092;2023-02-14T17:23:11;23.87;;;12.97;;
3547;SDS011;1788;49.400;11.092;2023-02-14T17:25:39;19.00;;;10.87;;
3547;SDS011;1788;49.400;11.092;2023-02-14T17:28:05;26.23;;;12.30;;
3547;SDS011;1788;49.400;11.092;2023-02-14T17:30:32;19.97;;;11.80;;
3547;SDS011;1788;49.400;11.092;2023-02-14T17:32:58;23.33;;;12.03;;
3547;SDS011;1788;49.400;11.092;2023-02-14T17:35:25;27.23;;;13.03;;
3547;SDS011;1788;49.400;11.092;2023-02-14T17:37:53;26.13;;;13.20;;
3547;SDS011;1788;49.400;11.092;2023-02-14T17:40:19;26.47;;;12.30;;
3547;SDS011;1788;49.400;11.092;2023-02-14T17:42:47;26.87;;;13.00;;
3547;SDS011;1788;49.400;11.092;2023-02-14T17:45:13;23.93;;;13.40;;
3547;SDS011;1788;49.400;11.092;2023-02-14T17:47:41;25.03;;;13.37;;
3547;SDS011;1788;49.400;11.092;2023-02-14T17:50:07;30.03;;;14.33;;
3547;SDS011;1788;49.400;11.092;2023-02-14T17:52:35;27.07;;;12.90;;
3547;SDS011;1788;49.400;11.092;2023-02-14T17:55:01;28.07;;;13.90;;
3547;SDS011;1788;49.400;11.092;2023-02-14T17:57:29;32.70;;;14.80;;
3547;SDS011;1788;49.400;11.092;2023-02-14T17:59:55;37.60;;;16.37;;
3547;SDS011;1788;49.400;11.092;2023-02-14T18:02:23;30.27;;;14.90;;
3547;SDS011;1788;49.400;11.092;2023-02-14T18:04:49;34.50;;;17.13;;
3547;SDS011;1788;49.400;11.092;2023-02-14T18:07:16;41.87;;;17.87;;
3547;SDS011;1788;49.400;11.092;2023-02-14T18:09:42;42.73;;;18.40;;
3547;SDS011;1788;49.400;11.092;2023-02-14T18:12:09;32.23;;;16.27;;
3547;SDS011;1788;49.400;11.092;2023-02-14T18:14:36;37.97;;;17.53;;
3547;SDS011;1788;49.400;11.092;2023-02-14T18:17:03;42.97;;;19.93;;
3547;SDS011;1788;49.400;11.092;2023-02-14T18:19:30;45.70;;;20.37;;
3547;SDS011;1788;49.400;11.092;2023-02-14T18:21:56;46.27;;;20.17;;
3547;SDS011;1788;49.400;11.092;2023-02-14T18:24:23;42.20;;;19.83;;
3547;SDS011;1788;49.400;11.092;2023-02-14T18:26:50;42.17;;;20.03;;
3547;SDS011;1788;49.400;11.092;2023-02-14T18:29:16;47.50;;;20.83;;
3547;SDS011;1788;49.400;11.092;2023-02-14T18:31:44;43.03;;;20.07;;